sensor_id;sensor_type;location;lat;lon;timestamp;P1;durP1;ratioP1;P2;durP2;ratioP2
69369;SDS011;56530;42.640;23.372;2023-04-01T00:01:18;11.50;;;6.78;;
69369;SDS011;56530;42.640;23.372;2023-04-01T00:03:43;8.73;;;6.13;;
69369;SDS011;56530;42.640;23.372;2023-04-01T00:06:09;13.70;;;6.80;;
69369;SDS011;56530;42.640;23.372;2023-04-01T00:08:37;11.95;;;7.55;;
69369;SDS011;56530;42.640;23.372;2023-04-01T00:11:03;16.43;;;8.37;;
69369;SDS011;56530;42.640;23.372;2023-04-01T00:13:28;13.40;;;8.57;;
69369;SDS011;56530;42.640;23.372;2023-04-01T00:15:54;15.80;;;8.85;;
69369;SDS011;56530;42.640;23.372;2023-04-01T00:18:20;13.82;;;8.00;;
69369;SDS011;56530;42.640;23.372;2023-04-01T00:20:46;16.07;;;8.13;;
69369;SDS011;56530;42.640;23.372;2023-04-01T00:23:13;14.77;;;8.00;;
69369;SDS011;56530;42.640;23.372;2023-04-01T00:25:39;13.10;;;8.02;;
69369;SDS011;56530;42.640;23.372;2023-04-01T00:28:04;14.00;;;8.10;;
69369;SDS011;56530;42.640;23.372;2023-04-01T00:30:30;16.27;;;7.83;;
69369;SDS011;56530;42.640;23.372;2023-04-01T00:32:55;12.47;;;7.17;;
69369;SDS011;56530;42.640;23.372;2023-04-01T00:35:20;12.73;;;7.70;;
69369;SDS011;56530;42.640;23.372;2023-04-01T00:37:46;11.90;;;7.55;;
69369;SDS011;56530;42.640;23.372;2023-04-01T00:40:26;12.80;;;7.40;;
69369;SDS011;56530;42.640;23.372;2023-04-01T00:42:54;12.10;;;7.05;;
69369;SDS011;56530;42.640;23.372;2023-04-01T00:45:25;13.53;;;7.47;;
69369;SDS011;56530;42.640;23.372;2023-04-01T00:47:56;13.23;;;7.30;;
69369;SDS011;56530;42.640;23.372;2023-04-01T00:50:22;12.15;;;6.57;;
69369;SDS011;56530;42.640;23.372;2023-04-01T00:52:49;11.85;;;6.95;;
69369;SDS011;56530;42.640;23.372;2023-04-01T00:55:15;13.73;;;6.60;;
69369;SDS011;56530;42.640;23.372;2023-04-01T00:57:41;10.65;;;5.82;;
69369;SDS011;56530;42.640;23.372;2023-04-01T01:00:10;8.00;;;5.60;;
69369;SDS011;56530;42.640;23.372;2023-04-01T01:02:38;14.68;;;6.38;;
69369;SDS011;56530;42.640;23.372;2023-04-01T01:05:06;11.90;;;6.55;;
69369;SDS011;56530;42.640;23.372;2023-04-01T01:10:30;12.57;;;5.60;;
69369;SDS011;56530;42.640;23.372;2023-04-01T01:13:01;8.40;;;5.20;;
69369;SDS011;56530;42.640;23.372;2023-04-01T01:23:50;9.13;;;4.80;;
69369;SDS011;56530;42.640;23.372;2023-04-01T01:37:35;10.65;;;4.40;;
69369;SDS011;56530;42.640;23.372;2023-04-01T01:40:03;9.48;;;4.85;;
69369;SDS011;56530;42.640;23.372;2023-04-01T01:42:31;7.60;;;3.90;;
69369;SDS011;56530;42.640;23.372;2023-04-01T01:45:00;7.95;;;4.78;;
69369;SDS011;56530;42.640;23.372;2023-04-01T01:47:27;7.82;;;3.47;;
69369;SDS011;56530;42.640;23.372;2023-04-01T01:49:53;12.23;;;4.72;;
69369;SDS011;56530;42.640;23.372;2023-04-01T01:52:21;8.65;;;3.78;;
69369;SDS011;56530;42.640;23.372;2023-04-01T01:54:51;10.20;;;3.95;;
69369;SDS011;56530;42.640;23.372;2023-04-01T01:57:19;7.82;;;3.72;;
69369;SDS011;56530;42.640;23.372;2023-04-01T01:59:49;7.28;;;3.35;;
69369;SDS011;56530;42.640;23.372;2023-04-01T02:02:17;11.40;;;4.45;;
69369;SDS011;56530;42.640;23.372;2023-04-01T02:04:43;13.75;;;4.15;;
69369;SDS011;56530;42.640;23.372;2023-04-01T02:07:11;5.93;;;3.28;;
69369;SDS011;56530;42.640;23.372;2023-04-01T02:09:41;8.48;;;3.83;;
69369;SDS011;56530;42.640;23.372;2023-04-01T02:12:07;6.28;;;3.50;;
69369;SDS011;56530;42.640;23.372;2023-04-01T02:19:33;8.75;;;3.88;;
69369;SDS011;56530;42.640;23.372;2023-04-01T02:22:02;6.18;;;3.17;;
69369;SDS011;56530;42.640;23.372;2023-04-01T02:24:29;4.82;;;2.90;;
69369;SDS011;56530;42.640;23.372;2023-04-01T02:26:56;8.63;;;3.47;;
69369;SDS011;56530;42.640;23.372;2023-04-01T02:29:21;11.77;;;3.17;;
69369;SDS011;56530;42.640;23.372;2023-04-01T02:31:48;6.80;;;3.45;;
69369;SDS011;56530;42.640;23.372;2023-04-01T02:34:15;9.05;;;3.38;;
69369;SDS011;56530;42.640;23.372;2023-04-01T02:36:41;9.18;;;3.15;;
69369;SDS011;56530;42.640;23.372;2023-04-01T02:39:07;5.20;;;3.60;;
69369;SDS011;56530;42.640;23.372;2023-04-01T02:41:38;6.57;;;2.90;;
69369;SDS011;56530;42.640;23.372;2023-04-01T02:44:05;5.03;;;3.42;;
69369;SDS011;56530;42.640;23.372;2023-04-01T02:46:31;7.10;;;3.10;;
69369;SDS011;56530;42.640;23.372;2023-04-01T02:48:56;10.10;;;3.78;;
69369;SDS011;56530;42.640;23.372;2023-04-01T02:51:21;13.38;;;3.60;;
69369;SDS011;56530;42.640;23.372;2023-04-01T02:53:47;7.30;;;3.92;;
69369;SDS011;56530;42.640;23.372;2023-04-01T02:56:12;11.55;;;4.40;;
69369;SDS011;56530;42.640;23.372;2023-04-01T02:58:38;6.70;;;3.50;;
69369;SDS011;56530;42.640;23.372;2023-04-01T03:01:03;8.57;;;3.45;;
69369;SDS011;56530;42.640;23.372;2023-04-01T03:03:28;18.70;;;5.53;;
69369;SDS011;56530;42.640;23.372;2023-04-01T03:05:54;6.93;;;3.63;;
69369;SDS011;56530;42.640;23.372;2023-04-01T03:08:23;7.18;;;3.75;;
69369;SDS011;56530;42.640;23.372;2023-04-01T03:10:49;9.82;;;3.60;;
69369;SDS011;56530;42.640;23.372;2023-04-01T03:13:14;9.35;;;4.18;;
69369;SDS011;56530;42.640;23.372;2023-04-01T03:15:40;11.55;;;4.78;;
69369;SDS011;56530;42.640;23.372;2023-04-01T03:18:05;6.27;;;3.63;;
69369;SDS011;56530;42.640;23.372;2023-04-01T03:20:30;10.98;;;3.97;;
69369;SDS011;56530;42.640;23.372;2023-04-01T03:22:56;7.68;;;4.13;;
69369;SDS011;56530;42.640;23.372;2023-04-01T03:25:21;8.38;;;4.20;;
69369;SDS011;56530;42.640;23.372;2023-04-01T03:27:47;10.00;;;5.00;;
69369;SDS011;56530;42.640;23.372;2023-04-01T03:30:12;6.28;;;4.25;;
69369;SDS011;56530;42.640;23.372;2023-04-01T03:32:37;11.80;;;4.97;;
69369;SDS011;56530;42.640;23.372;2023-04-01T03:35:03;6.13;;;4.03;;
69369;SDS011;56530;42.640;23.372;2023-04-01T03:37:29;7.70;;;4.20;;
69369;SDS011;56530;42.640;23.372;2023-04-01T03:39:55;9.10;;;4.30;;
69369;SDS011;56530;42.640;23.372;2023-04-01T03:42:20;10.17;;;4.83;;
69369;SDS011;56530;42.640;23.372;2023-04-01T03:44:45;10.30;;;5.15;;
69369;SDS011;56530;42.640;23.372;2023-04-01T03:47:11;11.20;;;4.90;;
69369;SDS011;56530;42.640;23.372;2023-04-01T03:49:36;9.30;;;4.63;;
69369;SDS011;56530;42.640;23.372;2023-04-01T03:52:02;8.45;;;3.55;;
69369;SDS011;56530;42.640;23.372;2023-04-01T03:54:27;9.52;;;5.25;;
69369;SDS011;56530;42.640;23.372;2023-04-01T03:56:53;10.93;;;4.22;;
69369;SDS011;56530;42.640;23.372;2023-04-01T03:59:18;7.65;;;3.83;;
69369;SDS011;56530;42.640;23.372;2023-04-01T04:01:43;7.38;;;4.05;;
69369;SDS011;56530;42.640;23.372;2023-04-01T04:04:11;10.85;;;5.60;;
69369;SDS011;56530;42.640;23.372;2023-04-01T04:06:38;13.38;;;6.45;;
69369;SDS011;56530;42.640;23.372;2023-04-01T04:09:03;13.47;;;6.47;;
69369;SDS011;56530;42.640;23.372;2023-04-01T04:11:30;13.10;;;6.35;;
69369;SDS011;56530;42.640;23.372;2023-04-01T04:13:56;9.20;;;6.13;;
69369;SDS011;56530;42.640;23.372;2023-04-01T04:16:21;14.13;;;7.07;;
69369;SDS011;56530;42.640;23.372;2023-04-01T04:18:46;10.93;;;5.60;;
69369;SDS011;56530;42.640;23.372;2023-04-01T04:21:12;11.60;;;6.20;;
69369;SDS011;56530;42.640;23.372;2023-04-01T04:23:39;11.13;;;5.40;;
69369;SDS011;56530;42.640;23.372;2023-04-01T04:26:08;11.60;;;4.82;;
69369;SDS011;56530;42.640;23.372;2023-04-01T04:28:35;10.52;;;4.97;;
69369;SDS011;56530;42.640;23.372;2023-04-01T04:31:01;13.50;;;6.47;;
69369;SDS011;56530;42.640;23.372;2023-04-01T04:33:26;9.88;;;4.18;;
69369;SDS011;56530;42.640;23.372;2023-04-01T04:35:54;7.38;;;4.30;;
69369;SDS011;56530;42.640;23.372;2023-04-01T04:38:20;11.90;;;4.38;;
69369;SDS011;56530;42.640;23.372;2023-04-01T04:40:45;8.18;;;3.42;;
69369;SDS011;56530;42.640;23.372;2023-04-01T04:43:11;8.27;;;4.20;;
69369;SDS011;56530;42.640;23.372;2023-04-01T04:45:38;6.85;;;3.70;;
69369;SDS011;56530;42.640;23.372;2023-04-01T04:48:03;11.52;;;4.00;;
69369;SDS011;56530;42.640;23.372;2023-04-01T04:50:29;10.18;;;4.05;;
69369;SDS011;56530;42.640;23.372;2023-04-01T04:52:54;8.82;;;3.30;;
69369;SDS011;56530;42.640;23.372;2023-04-01T04:55:20;8.18;;;3.67;;
69369;SDS011;56530;42.640;23.372;2023-04-01T04:57:45;5.53;;;3.65;;
69369;SDS011;56530;42.640;23.372;2023-04-01T05:00:11;5.22;;;3.47;;
69369;SDS011;56530;42.640;23.372;2023-04-01T05:02:37;6.63;;;3.45;;
69369;SDS011;56530;42.640;23.372;2023-04-01T05:05:02;7.30;;;3.58;;
69369;SDS011;56530;42.640;23.372;2023-04-01T05:07:29;9.60;;;2.85;;
69369;SDS011;56530;42.640;23.372;2023-04-01T05:09:54;6.03;;;4.05;;
69369;SDS011;56530;42.640;23.372;2023-04-01T05:12:20;7.32;;;3.30;;
69369;SDS011;56530;42.640;23.372;2023-04-01T05:14:45;7.97;;;3.67;;
69369;SDS011;56530;42.640;23.372;2023-04-01T05:17:11;12.37;;;4.33;;
69369;SDS011;56530;42.640;23.372;2023-04-01T05:19:37;10.95;;;4.72;;
69369;SDS011;56530;42.640;23.372;2023-04-01T05:22:03;9.70;;;4.75;;
69369;SDS011;56530;42.640;23.372;2023-04-01T05:24:29;9.05;;;3.95;;
69369;SDS011;56530;42.640;23.372;2023-04-01T05:26:55;13.05;;;4.80;;
69369;SDS011;56530;42.640;23.372;2023-04-01T05:29:21;16.45;;;4.75;;
69369;SDS011;56530;42.640;23.372;2023-04-01T05:31:46;11.50;;;4.68;;
69369;SDS011;56530;42.640;23.372;2023-04-01T05:34:12;12.43;;;5.32;;
69369;SDS011;56530;42.640;23.372;2023-04-01T05:36:38;12.18;;;4.65;;
69369;SDS011;56530;42.640;23.372;2023-04-01T05:39:03;13.00;;;4.95;;
69369;SDS011;56530;42.640;23.372;2023-04-01T05:41:29;11.57;;;5.95;;
69369;SDS011;56530;42.640;23.372;2023-04-01T05:43:54;10.20;;;5.55;;
69369;SDS011;56530;42.640;23.372;2023-04-01T05:46:20;8.63;;;5.35;;
69369;SDS011;56530;42.640;23.372;2023-04-01T05:48:45;10.93;;;5.28;;
69369;SDS011;56530;42.640;23.372;2023-04-01T05:51:14;10.75;;;5.43;;
69369;SDS011;56530;42.640;23.372;2023-04-01T05:53:40;7.35;;;4.90;;
69369;SDS011;56530;42.640;23.372;2023-04-01T05:56:07;9.48;;;4.72;;
69369;SDS011;56530;42.640;23.372;2023-04-01T05:58:34;13.23;;;5.00;;
69369;SDS011;56530;42.640;23.372;2023-04-01T06:01:10;15.35;;;4.57;;
69369;SDS011;56530;42.640;23.372;2023-04-01T06:03:36;6.70;;;3.95;;
69369;SDS011;56530;42.640;23.372;2023-04-01T06:06:01;9.07;;;4.45;;
69369;SDS011;56530;42.640;23.372;2023-04-01T06:08:27;10.40;;;4.43;;
69369;SDS011;56530;42.640;23.372;2023-04-01T06:19:55;13.40;;;5.57;;
69369;SDS011;56530;42.640;23.372;2023-04-01T06:25:25;11.73;;;5.57;;
69369;SDS011;56530;42.640;23.372;2023-04-01T06:50:56;16.20;;;5.97;;
69369;SDS011;56530;42.640;23.372;2023-04-01T06:58:13;16.17;;;5.55;;
69369;SDS011;56530;42.640;23.372;2023-04-01T07:00:53;9.27;;;4.75;;
69369;SDS011;56530;42.640;23.372;2023-04-01T07:05:46;11.20;;;5.43;;
69369;SDS011;56530;42.640;23.372;2023-04-01T07:08:17;12.57;;;5.72;;
69369;SDS011;56530;42.640;23.372;2023-04-01T07:13:22;6.75;;;4.47;;
69369;SDS011;56530;42.640;23.372;2023-04-01T07:16:27;16.10;;;6.18;;
69369;SDS011;56530;42.640;23.372;2023-04-01T07:21:23;9.90;;;5.38;;
69369;SDS011;56530;42.640;23.372;2023-04-01T07:23:56;6.28;;;4.65;;
69369;SDS011;56530;42.640;23.372;2023-04-01T07:26:25;10.23;;;4.63;;
69369;SDS011;56530;42.640;23.372;2023-04-01T07:28:52;8.75;;;5.40;;
69369;SDS011;56530;42.640;23.372;2023-04-01T07:31:22;7.25;;;4.93;;
69369;SDS011;56530;42.640;23.372;2023-04-01T07:34:06;11.82;;;6.05;;
69369;SDS011;56530;42.640;23.372;2023-04-01T07:36:39;17.08;;;6.25;;
69369;SDS011;56530;42.640;23.372;2023-04-01T07:44:23;11.13;;;5.78;;
69369;SDS011;56530;42.640;23.372;2023-04-01T07:52:20;10.52;;;5.03;;
69369;SDS011;56530;42.640;23.372;2023-04-01T07:57:21;14.23;;;8.88;;
69369;SDS011;56530;42.640;23.372;2023-04-01T08:00:00;12.90;;;5.78;;
69369;SDS011;56530;42.640;23.372;2023-04-01T08:14:00;22.75;;;5.18;;
69369;SDS011;56530;42.640;23.372;2023-04-01T08:21:52;11.57;;;4.55;;
69369;SDS011;56530;42.640;23.372;2023-04-01T08:27:01;13.50;;;5.43;;
69369;SDS011;56530;42.640;23.372;2023-04-01T08:29:51;13.30;;;4.90;;
69369;SDS011;56530;42.640;23.372;2023-04-01T08:32:23;13.88;;;5.05;;
69369;SDS011;56530;42.640;23.372;2023-04-01T08:34:55;11.77;;;4.95;;
69369;SDS011;56530;42.640;23.372;2023-04-01T08:37:35;12.30;;;5.63;;
69369;SDS011;56530;42.640;23.372;2023-04-01T08:45:53;15.60;;;5.30;;
69369;SDS011;56530;42.640;23.372;2023-04-01T08:48:35;12.10;;;4.72;;
69369;SDS011;56530;42.640;23.372;2023-04-01T08:51:26;11.45;;;4.88;;
69369;SDS011;56530;42.640;23.372;2023-04-01T09:05:53;12.05;;;5.72;;
69369;SDS011;56530;42.640;23.372;2023-04-01T09:19:15;7.28;;;3.80;;
69369;SDS011;56530;42.640;23.372;2023-04-01T09:35:21;12.20;;;4.60;;
69369;SDS011;56530;42.640;23.372;2023-04-01T09:38:17;8.98;;;4.72;;
69369;SDS011;56530;42.640;23.372;2023-04-01T09:40:56;12.70;;;4.95;;
69369;SDS011;56530;42.640;23.372;2023-04-01T09:43:27;9.35;;;3.72;;
69369;SDS011;56530;42.640;23.372;2023-04-01T09:48:53;10.75;;;3.45;;
69369;SDS011;56530;42.640;23.372;2023-04-01T10:08:20;10.98;;;4.50;;
69369;SDS011;56530;42.640;23.372;2023-04-01T10:22:58;10.07;;;3.80;;
69369;SDS011;56530;42.640;23.372;2023-04-01T10:31:08;10.95;;;3.30;;
69369;SDS011;56530;42.640;23.372;2023-04-01T10:36:51;10.07;;;3.38;;
69369;SDS011;56530;42.640;23.372;2023-04-01T10:42:31;8.32;;;3.50;;
69369;SDS011;56530;42.640;23.372;2023-04-01T10:45:08;10.70;;;3.83;;
69369;SDS011;56530;42.640;23.372;2023-04-01T10:48:13;4.43;;;3.10;;
69369;SDS011;56530;42.640;23.372;2023-04-01T10:50:56;11.45;;;3.67;;
69369;SDS011;56530;42.640;23.372;2023-04-01T10:56:32;9.35;;;4.15;;
69369;SDS011;56530;42.640;23.372;2023-04-01T11:02:06;8.52;;;3.67;;
69369;SDS011;56530;42.640;23.372;2023-04-01T11:21:49;8.07;;;2.60;;
69369;SDS011;56530;42.640;23.372;2023-04-01T11:24:33;4.68;;;1.95;;
69369;SDS011;56530;42.640;23.372;2023-04-01T11:35:00;8.68;;;3.55;;
69369;SDS011;56530;42.640;23.372;2023-04-01T11:57:00;7.75;;;2.90;;
69369;SDS011;56530;42.640;23.372;2023-04-01T12:13:52;6.00;;;2.33;;
69369;SDS011;56530;42.640;23.372;2023-04-01T12:21:45;7.63;;;3.72;;
69369;SDS011;56530;42.640;23.372;2023-04-01T12:37:39;5.10;;;2.40;;
69369;SDS011;56530;42.640;23.372;2023-04-01T12:43:19;16.33;;;3.75;;
69369;SDS011;56530;42.640;23.372;2023-04-01T13:06:24;5.10;;;2.95;;
69369;SDS011;56530;42.640;23.372;2023-04-01T13:09:01;4.95;;;2.70;;
69369;SDS011;56530;42.640;23.372;2023-04-01T13:14:32;4.80;;;2.70;;
69369;SDS011;56530;42.640;23.372;2023-04-01T13:17:03;4.43;;;2.72;;
69369;SDS011;56530;42.640;23.372;2023-04-01T13:19:38;7.43;;;3.53;;
69369;SDS011;56530;42.640;23.372;2023-04-01T13:25:06;6.87;;;2.77;;
69369;SDS011;56530;42.640;23.372;2023-04-01T13:27:43;2.72;;;2.30;;
69369;SDS011;56530;42.640;23.372;2023-04-01T13:35:31;2.45;;;1.70;;
69369;SDS011;56530;42.640;23.372;2023-04-01T13:43:43;4.68;;;1.52;;
69369;SDS011;56530;42.640;23.372;2023-04-01T13:46:21;2.33;;;1.20;;
69369;SDS011;56530;42.640;23.372;2023-04-01T13:54:09;7.38;;;3.30;;
69369;SDS011;56530;42.640;23.372;2023-04-01T14:02:28;4.35;;;2.30;;
69369;SDS011;56530;42.640;23.372;2023-04-01T14:53:11;6.85;;;3.10;;
69369;SDS011;56530;42.640;23.372;2023-04-01T14:55:54;9.65;;;3.40;;
69369;SDS011;56530;42.640;23.372;2023-04-01T14:58:21;5.00;;;3.13;;
69369;SDS011;56530;42.640;23.372;2023-04-01T15:12:21;4.82;;;2.30;;
69369;SDS011;56530;42.640;23.372;2023-04-01T15:20:50;5.03;;;3.28;;
69369;SDS011;56530;42.640;23.372;2023-04-01T15:23:34;4.80;;;2.30;;
69369;SDS011;56530;42.640;23.372;2023-04-01T15:26:13;9.38;;;3.38;;
69369;SDS011;56530;42.640;23.372;2023-04-01T15:29:16;6.00;;;3.40;;
69369;SDS011;56530;42.640;23.372;2023-04-01T15:37:22;5.72;;;3.35;;
69369;SDS011;56530;42.640;23.372;2023-04-01T15:43:00;9.07;;;3.67;;
69369;SDS011;56530;42.640;23.372;2023-04-01T16:00:04;5.68;;;1.60;;
69369;SDS011;56530;42.640;23.372;2023-04-01T16:05:31;9.60;;;1.60;;
69369;SDS011;56530;42.640;23.372;2023-04-01T16:14:11;5.47;;;2.57;;
69369;SDS011;56530;42.640;23.372;2023-04-01T16:22:37;3.63;;;2.25;;
69369;SDS011;56530;42.640;23.372;2023-04-01T16:31:05;2.60;;;2.40;;
69369;SDS011;56530;42.640;23.372;2023-04-01T16:33:22;2.45;;;2.25;;
69369;SDS011;56530;42.640;23.372;2023-04-01T16:38:48;3.00;;;2.78;;
69369;SDS011;56530;42.640;23.372;2023-04-01T16:41:34;2.40;;;2.20;;
69369;SDS011;56530;42.640;23.372;2023-04-01T16:44:10;1.70;;;1.60;;
69369;SDS011;56530;42.640;23.372;2023-04-01T16:46:54;2.35;;;2.10;;
69369;SDS011;56530;42.640;23.372;2023-04-01T16:49:29;2.22;;;1.60;;
69369;SDS011;56530;42.640;23.372;2023-04-01T16:52:12;1.73;;;1.63;;
69369;SDS011;56530;42.640;23.372;2023-04-01T16:54:41;1.67;;;1.58;;
69369;SDS011;56530;42.640;23.372;2023-04-01T16:59:37;2.38;;;2.17;;
69369;SDS011;56530;42.640;23.372;2023-04-01T17:10:00;2.67;;;1.83;;
69369;SDS011;56530;42.640;23.372;2023-04-01T17:20:14;1.10;;;1.10;;
69369;SDS011;56530;42.640;23.372;2023-04-01T17:23:01;1.42;;;1.08;;
69369;SDS011;56530;42.640;23.372;2023-04-01T17:28:32;2.10;;;1.90;;
69369;SDS011;56530;42.640;23.372;2023-04-01T17:39:04;1.67;;;1.58;;
69369;SDS011;56530;42.640;23.372;2023-04-01T17:41:48;2.67;;;2.28;;
69369;SDS011;56530;42.640;23.372;2023-04-01T17:49:39;1.50;;;1.40;;
69369;SDS011;56530;42.640;23.372;2023-04-01T18:03:37;2.03;;;1.70;;
69369;SDS011;56530;42.640;23.372;2023-04-01T18:06:14;27.05;;;2.67;;
69369;SDS011;56530;42.640;23.372;2023-04-01T18:09:05;3.17;;;2.33;;
69369;SDS011;56530;42.640;23.372;2023-04-01T18:14:31;2.00;;;1.80;;
69369;SDS011;56530;42.640;23.372;2023-04-01T18:22:19;3.05;;;2.20;;
69369;SDS011;56530;42.640;23.372;2023-04-01T18:27:52;2.78;;;2.58;;
69369;SDS011;56530;42.640;23.372;2023-04-01T18:30:38;3.33;;;2.88;;
69369;SDS011;56530;42.640;23.372;2023-04-01T18:33:08;2.90;;;2.70;;
69369;SDS011;56530;42.640;23.372;2023-04-01T18:35:54;2.63;;;2.33;;
69369;SDS011;56530;42.640;23.372;2023-04-01T18:38:46;2.60;;;2.40;;
69369;SDS011;56530;42.640;23.372;2023-04-01T18:47:25;4.53;;;2.40;;
69369;SDS011;56530;42.640;23.372;2023-04-01T18:50:02;2.78;;;2.47;;
69369;SDS011;56530;42.640;23.372;2023-04-01T18:52:54;3.75;;;2.72;;
69369;SDS011;56530;42.640;23.372;2023-04-01T19:01:01;2.50;;;2.28;;
69369;SDS011;56530;42.640;23.372;2023-04-01T19:06:43;2.38;;;2.10;;
69369;SDS011;56530;42.640;23.372;2023-04-01T19:09:17;2.28;;;2.08;;
69369;SDS011;56530;42.640;23.372;2023-04-01T19:11:57;2.97;;;2.00;;
69369;SDS011;56530;42.640;23.372;2023-04-01T19:17:01;3.08;;;2.67;;
69369;SDS011;56530;42.640;23.372;2023-04-01T19:19:43;2.63;;;2.20;;
69369;SDS011;56530;42.640;23.372;2023-04-01T19:22:32;3.75;;;1.95;;
69369;SDS011;56530;42.640;23.372;2023-04-01T19:30:22;2.65;;;1.80;;
69369;SDS011;56530;42.640;23.372;2023-04-01T19:38:08;2.85;;;1.70;;
69369;SDS011;56530;42.640;23.372;2023-04-01T19:41:03;1.65;;;1.55;;
69369;SDS011;56530;42.640;23.372;2023-04-01T19:43:35;2.00;;;1.40;;
69369;SDS011;56530;42.640;23.372;2023-04-01T19:54:18;2.17;;;2.00;;
69369;SDS011;56530;42.640;23.372;2023-04-01T19:56:53;10.55;;;2.15;;
69369;SDS011;56530;42.640;23.372;2023-04-01T19:59:34;1.52;;;1.42;;
69369;SDS011;56530;42.640;23.372;2023-04-01T20:04:44;1.48;;;1.38;;
69369;SDS011;56530;42.640;23.372;2023-04-01T20:10:05;1.45;;;1.35;;
69369;SDS011;56530;42.640;23.372;2023-04-01T20:17:57;1.52;;;1.42;;
69369;SDS011;56530;42.640;23.372;2023-04-01T20:20:29;2.00;;;1.42;;
69369;SDS011;56530;42.640;23.372;2023-04-01T20:25:25;2.08;;;1.50;;
69369;SDS011;56530;42.640;23.372;2023-04-01T20:27:58;1.38;;;1.33;;
69369;SDS011;56530;42.640;23.372;2023-04-01T20:33:06;1.52;;;1.42;;
69369;SDS011;56530;42.640;23.372;2023-04-01T20:41:20;1.83;;;1.67;;
69369;SDS011;56530;42.640;23.372;2023-04-01T20:44:04;3.22;;;1.42;;
69369;SDS011;56530;42.640;23.372;2023-04-01T20:46:50;1.50;;;1.40;;
69369;SDS011;56530;42.640;23.372;2023-04-01T21:05:27;1.60;;;1.50;;
69369;SDS011;56530;42.640;23.372;2023-04-01T21:10:57;5.10;;;2.35;;
69369;SDS011;56530;42.640;23.372;2023-04-01T21:18:53;1.67;;;1.58;;
69369;SDS011;56530;42.640;23.372;2023-04-01T21:29:18;1.27;;;1.27;;
69369;SDS011;56530;42.640;23.372;2023-04-01T21:34:48;1.77;;;1.10;;
69369;SDS011;56530;42.640;23.372;2023-04-01T21:37:22;4.22;;;1.77;;
69369;SDS011;56530;42.640;23.372;2023-04-01T21:40:02;1.08;;;1.08;;
69369;SDS011;56530;42.640;23.372;2023-04-01T21:43:05;1.05;;;1.05;;
69369;SDS011;56530;42.640;23.372;2023-04-01T21:51:33;1.17;;;0.98;;
69369;SDS011;56530;42.640;23.372;2023-04-01T22:00:13;2.83;;;1.60;;
69369;SDS011;56530;42.640;23.372;2023-04-01T22:05:30;1.65;;;1.55;;
69369;SDS011;56530;42.640;23.372;2023-04-01T22:10:59;1.08;;;1.08;;
69369;SDS011;56530;42.640;23.372;2023-04-01T22:13:39;1.92;;;1.52;;
69369;SDS011;56530;42.640;23.372;2023-04-01T22:21:56;3.42;;;1.83;;
69369;SDS011;56530;42.640;23.372;2023-04-01T22:24:36;2.13;;;1.40;;
69369;SDS011;56530;42.640;23.372;2023-04-01T22:27:06;1.33;;;1.23;;
69369;SDS011;56530;42.640;23.372;2023-04-01T22:29:42;3.63;;;1.58;;
69369;SDS011;56530;42.640;23.372;2023-04-01T22:32:34;1.10;;;1.10;;
69369;SDS011;56530;42.640;23.372;2023-04-01T22:43:11;1.05;;;1.00;;
69369;SDS011;56530;42.640;23.372;2023-04-01T22:48:22;2.70;;;0.98;;
69369;SDS011;56530;42.640;23.372;2023-04-01T22:59:33;1.02;;;0.90;;
69369;SDS011;56530;42.640;23.372;2023-04-01T23:02:06;1.50;;;1.40;;
69369;SDS011;56530;42.640;23.372;2023-04-01T23:04:37;2.10;;;1.20;;
69369;SDS011;56530;42.640;23.372;2023-04-01T23:07:27;1.42;;;1.13;;
69369;SDS011;56530;42.640;23.372;2023-04-01T23:10:13;2.50;;;0.98;;
69369;SDS011;56530;42.640;23.372;2023-04-01T23:12:55;1.02;;;0.90;;
69369;SDS011;56530;42.640;23.372;2023-04-01T23:15:23;0.95;;;0.95;;
69369;SDS011;56530;42.640;23.372;2023-04-01T23:20:33;0.75;;;0.75;;
69369;SDS011;56530;42.640;23.372;2023-04-01T23:25:54;1.05;;;1.05;;
69369;SDS011;56530;42.640;23.372;2023-04-01T23:31:03;0.80;;;0.80;;
69369;SDS011;56530;42.640;23.372;2023-04-01T23:33:29;4.75;;;0.95;;
69369;SDS011;56530;42.640;23.372;2023-04-01T23:35:59;0.75;;;0.75;;
69369;SDS011;56530;42.640;23.372;2023-04-01T23:38:36;0.73;;;0.65;;
69369;SDS011;56530;42.640;23.372;2023-04-01T23:41:04;1.10;;;0.90;;
69369;SDS011;56530;42.640;23.372;2023-04-01T23:43:32;0.98;;;0.80;;
69369;SDS011;56530;42.640;23.372;2023-04-01T23:46:01;0.98;;;0.70;;
69369;SDS011;56530;42.640;23.372;2023-04-01T23:48:33;2.67;;;0.80;;
69369;SDS011;56530;42.640;23.372;2023-04-01T23:51:02;4.65;;;1.00;;
69369;SDS011;56530;42.640;23.372;2023-04-01T23:53:29;0.95;;;0.85;;
69369;SDS011;56530;42.640;23.372;2023-04-01T23:55:57;0.88;;;0.88;;
69369;SDS011;56530;42.640;23.372;2023-04-01T23:58:24;0.80;;;0.80;;
